sensor_id;sensor_type;location;lat;lon;timestamp;temperature;humidity
3402;DHT22;1714;49.756;8.610;2023-03-24T04:38:59;14.80;37.00
3402;DHT22;1714;49.756;8.610;2023-03-24T04:49:46;14.70;42.50
3402;DHT22;1714;49.756;8.610;2023-03-24T05:00:22;14.60;45.50
3402;DHT22;1714;49.756;8.610;2023-03-24T05:10:58;14.20;58.10
3402;DHT22;1714;49.756;8.610;2023-03-24T05:21:35;13.70;73.40
3402;DHT22;1714;49.756;8.610;2023-03-24T05:32:13;13.40;81.90
3402;DHT22;1714;49.756;8.610;2023-03-24T05:42:49;13.10;85.40
3402;DHT22;1714;49.756;8.610;2023-03-24T05:53:27;13.00;93.70
3402;DHT22;1714;49.756;8.610;2023-03-24T06:04:19;13.00;93.40
3402;DHT22;1714;49.756;8.610;2023-03-24T06:14:58;13.10;91.20
3402;DHT22;1714;49.756;8.610;2023-03-24T06:25:36;13.20;87.00
3402;DHT22;1714;49.756;8.610;2023-03-24T06:36:38;13.30;81.40
3402;DHT22;1714;49.756;8.610;2023-03-24T06:47:16;13.30;85.60
3402;DHT22;1714;49.756;8.610;2023-03-24T06:57:53;13.30;85.60
3402;DHT22;1714;49.756;8.610;2023-03-24T07:08:45;13.30;92.80
3402;DHT22;1714;49.756;8.610;2023-03-24T07:19:21;13.20;97.60
3402;DHT22;1714;49.756;8.610;2023-03-24T07:30:08;13.40;93.70
3402;DHT22;1714;49.756;8.610;2023-03-24T07:40:50;13.00;99.90
3402;DHT22;1714;49.756;8.610;2023-03-24T07:51:26;13.00;99.90
3402;DHT22;1714;49.756;8.610;2023-03-24T08:02:16;13.00;99.90
3402;DHT22;1714;49.756;8.610;2023-03-24T08:13:04;13.10;99.90
3402;DHT22;1714;49.756;8.610;2023-03-24T08:23:40;13.10;99.90
3402;DHT22;1714;49.756;8.610;2023-03-24T08:34:16;13.10;99.90
3402;DHT22;1714;49.756;8.610;2023-03-24T08:44:52;12.70;99.90
3402;DHT22;1714;49.756;8.610;2023-03-24T08:55:28;13.00;99.90
3402;DHT22;1714;49.756;8.610;2023-03-24T09:06:04;13.00;99.90
3402;DHT22;1714;49.756;8.610;2023-03-24T09:16:39;13.00;99.90
3402;DHT22;1714;49.756;8.610;2023-03-24T09:27:16;13.10;99.90
3402;DHT22;1714;49.756;8.610;2023-03-24T09:37:53;13.00;99.90
3402;DHT22;1714;49.756;8.610;2023-03-24T09:48:39;13.00;99.90
3402;DHT22;1714;49.756;8.610;2023-03-24T10:10:19;13.20;99.90
3402;DHT22;1714;49.756;8.610;2023-03-24T10:21:18;13.00;99.90
3402;DHT22;1714;49.756;8.610;2023-03-24T10:32:17;13.10;99.90
3402;DHT22;1714;49.756;8.610;2023-03-24T10:42:55;12.90;99.90
3402;DHT22;1714;49.756;8.610;2023-03-24T10:53:45;11.20;99.90
3402;DHT22;1714;49.756;8.610;2023-03-24T11:04:23;11.30;99.90
3402;DHT22;1714;49.756;8.610;2023-03-24T11:15:20;11.50;99.90
3402;DHT22;1714;49.756;8.610;2023-03-24T11:26:20;11.50;99.90
3402;DHT22;1714;49.756;8.610;2023-03-24T11:37:01;12.40;96.30
3402;DHT22;1714;49.756;8.610;2023-03-24T11:47:38;12.80;75.10
3402;DHT22;1714;49.756;8.610;2023-03-24T11:58:35;13.00;71.70
3402;DHT22;1714;49.756;8.610;2023-03-24T13:03:32;14.80;42.40
3402;DHT22;1714;49.756;8.610;2023-03-24T13:14:14;15.20;39.10
3402;DHT22;1714;49.756;8.610;2023-03-24T13:24:53;14.90;41.50
3402;DHT22;1714;49.756;8.610;2023-03-24T13:35:37;14.80;31.50
3402;DHT22;1714;49.756;8.610;2023-03-24T13:46:14;14.90;32.50
3402;DHT22;1714;49.756;8.610;2023-03-24T13:57:15;15.70;29.20
3402;DHT22;1714;49.756;8.610;2023-03-24T14:08:14;16.20;25.80
3402;DHT22;1714;49.756;8.610;2023-03-24T14:18:50;16.20;24.70
3402;DHT22;1714;49.756;8.610;2023-03-24T14:29:37;16.10;24.40
3402;DHT22;1714;49.756;8.610;2023-03-24T14:40:43;16.20;22.70
3402;DHT22;1714;49.756;8.610;2023-03-24T14:51:40;16.00;20.70
3402;DHT22;1714;49.756;8.610;2023-03-24T15:02:39;16.10;21.00
3402;DHT22;1714;49.756;8.610;2023-03-24T15:12:56;16.20;18.90
3402;DHT22;1714;49.756;8.610;2023-03-24T15:23:17;16.30;15.00
3402;DHT22;1714;49.756;8.610;2023-03-24T15:33:41;16.30;14.10
3402;DHT22;1714;49.756;8.610;2023-03-24T15:43:58;16.60;14.00
3402;DHT22;1714;49.756;8.610;2023-03-24T15:54:38;16.70;14.20
3402;DHT22;1714;49.756;8.610;2023-03-24T16:04:59;16.00;14.40
3402;DHT22;1714;49.756;8.610;2023-03-24T16:15:25;15.70;14.80
3402;DHT22;1714;49.756;8.610;2023-03-24T16:25:41;15.60;15.40
3402;DHT22;1714;49.756;8.610;2023-03-24T16:36:17;15.40;15.60
3402;DHT22;1714;49.756;8.610;2023-03-24T16:46:54;15.30;16.20
3402;DHT22;1714;49.756;8.610;2023-03-24T16:57:30;14.90;17.40
3402;DHT22;1714;49.756;8.610;2023-03-24T17:08:06;14.90;18.10
3402;DHT22;1714;49.756;8.610;2023-03-24T17:18:42;14.80;19.40
3402;DHT22;1714;49.756;8.610;2023-03-24T17:29:17;14.70;19.70
3402;DHT22;1714;49.756;8.610;2023-03-24T17:39:53;14.40;18.80
3402;DHT22;1714;49.756;8.610;2023-03-24T17:50:32;14.20;18.80
3402;DHT22;1714;49.756;8.610;2023-03-24T18:01:07;14.10;18.30
3402;DHT22;1714;49.756;8.610;2023-03-24T18:11:43;13.80;19.10
3402;DHT22;1714;49.756;8.610;2023-03-24T18:22:22;13.60;21.10
3402;DHT22;1714;49.756;8.610;2023-03-24T18:32:58;13.20;21.80
3402;DHT22;1714;49.756;8.610;2023-03-24T18:43:36;12.90;20.00
3402;DHT22;1714;49.756;8.610;2023-03-24T18:54:14;12.70;19.70
3402;DHT22;1714;49.756;8.610;2023-03-24T19:04:49;12.50;19.80
3402;DHT22;1714;49.756;8.610;2023-03-24T19:15:26;12.50;19.20
3402;DHT22;1714;49.756;8.610;2023-03-24T19:26:04;12.40;19.60
3402;DHT22;1714;49.756;8.610;2023-03-24T19:36:40;12.40;20.00
3402;DHT22;1714;49.756;8.610;2023-03-24T19:47:18;12.70;21.10
3402;DHT22;1714;49.756;8.610;2023-03-24T19:57:54;12.50;26.60
3402;DHT22;1714;49.756;8.610;2023-03-24T20:08:29;12.20;28.80
3402;DHT22;1714;49.756;8.610;2023-03-24T20:19:05;11.50;33.50
3402;DHT22;1714;49.756;8.610;2023-03-24T20:29:41;11.60;32.50
3402;DHT22;1714;49.756;8.610;2023-03-24T20:40:18;11.70;31.80
3402;DHT22;1714;49.756;8.610;2023-03-24T20:50:55;11.60;31.70
3402;DHT22;1714;49.756;8.610;2023-03-24T21:01:31;11.30;34.00
3402;DHT22;1714;49.756;8.610;2023-03-24T21:12:10;11.10;36.20
3402;DHT22;1714;49.756;8.610;2023-03-24T21:22:46;11.50;33.20
3402;DHT22;1714;49.756;8.610;2023-03-24T21:33:28;11.70;32.50
3402;DHT22;1714;49.756;8.610;2023-03-24T21:44:05;11.10;44.00
3402;DHT22;1714;49.756;8.610;2023-03-24T21:54:42;11.00;40.30
3402;DHT22;1714;49.756;8.610;2023-03-24T22:05:23;10.90;41.20
3402;DHT22;1714;49.756;8.610;2023-03-24T22:16:02;10.80;43.60
3402;DHT22;1714;49.756;8.610;2023-03-24T22:26:38;10.60;47.60
